sensor_id;sensor_type;location;lat;lon;timestamp;pressure;altitude;pressure_sealevel;temperature;humidity
72336;BME280;65062;48.446;8.834;2023-03-22T00:03:00;97369.25;;;7.63;83.29
72336;BME280;65062;48.446;8.834;2023-03-22T00:06:01;97365.72;;;7.56;83.06
72336;BME280;65062;48.446;8.834;2023-03-22T00:09:01;97358.16;;;7.39;82.03
72336;BME280;65062;48.446;8.834;2023-03-22T00:12:02;97362.47;;;7.08;83.19
72336;BME280;65062;48.446;8.834;2023-03-22T00:15:03;97359.09;;;6.99;83.95
72336;BME280;65062;48.446;8.834;2023-03-22T00:18:04;97361.88;;;6.82;84.97
72336;BME280;65062;48.446;8.834;2023-03-22T00:21:05;97352.25;;;6.98;85.50
72336;BME280;65062;48.446;8.834;2023-03-22T00:24:05;97358.34;;;6.59;83.84
72336;BME280;65062;48.446;8.834;2023-03-22T00:27:06;97361.59;;;6.44;84.94
72336;BME280;65062;48.446;8.834;2023-03-22T00:30:08;97362.22;;;6.38;85.60
72336;BME280;65062;48.446;8.834;2023-03-22T00:33:09;97354.75;;;6.35;85.87
72336;BME280;65062;48.446;8.834;2023-03-22T00:36:10;97350.69;;;6.25;84.73
72336;BME280;65062;48.446;8.834;2023-03-22T00:39:11;97360.25;;;6.00;84.46
72336;BME280;65062;48.446;8.834;2023-03-22T00:42:11;97365.22;;;5.78;85.87
72336;BME280;65062;48.446;8.834;2023-03-22T00:45:12;97357.97;;;5.89;85.47
72336;BME280;65062;48.446;8.834;2023-03-22T00:48:12;97348.81;;;5.77;84.95
72336;BME280;65062;48.446;8.834;2023-03-22T00:51:13;97347.75;;;5.46;86.43
72336;BME280;65062;48.446;8.834;2023-03-22T00:54:14;97341.38;;;5.33;87.70
72336;BME280;65062;48.446;8.834;2023-03-22T00:57:16;97342.31;;;5.24;87.52
72336;BME280;65062;48.446;8.834;2023-03-22T01:00:17;97335.66;;;5.21;88.83
72336;BME280;65062;48.446;8.834;2023-03-22T01:03:17;97338.38;;;5.12;88.52
72336;BME280;65062;48.446;8.834;2023-03-22T01:06:18;97334.94;;;5.45;88.81
72336;BME280;65062;48.446;8.834;2023-03-22T01:09:18;97336.97;;;5.25;89.22
72336;BME280;65062;48.446;8.834;2023-03-22T01:12:23;97334.69;;;5.22;88.52
72336;BME280;65062;48.446;8.834;2023-03-22T01:15:23;97332.06;;;5.14;87.24
72336;BME280;65062;48.446;8.834;2023-03-22T01:18:23;97328.94;;;5.03;88.90
72336;BME280;65062;48.446;8.834;2023-03-22T01:21:24;97328.31;;;5.09;88.67
72336;BME280;65062;48.446;8.834;2023-03-22T01:24:24;97327.66;;;5.07;89.13
72336;BME280;65062;48.446;8.834;2023-03-22T01:27:25;97317.53;;;4.96;89.97
72336;BME280;65062;48.446;8.834;2023-03-22T01:30:25;97314.09;;;4.87;89.91
72336;BME280;65062;48.446;8.834;2023-03-22T01:33:25;97315.50;;;5.07;89.26
72336;BME280;65062;48.446;8.834;2023-03-22T01:36:26;97316.53;;;4.89;86.98
72336;BME280;65062;48.446;8.834;2023-03-22T01:39:26;97317.13;;;4.75;88.60
72336;BME280;65062;48.446;8.834;2023-03-22T01:42:27;97304.53;;;4.54;88.65
72336;BME280;65062;48.446;8.834;2023-03-22T01:45:46;97311.09;;;4.49;89.63
72336;BME280;65062;48.446;8.834;2023-03-22T01:48:47;97309.53;;;4.30;89.36
72336;BME280;65062;48.446;8.834;2023-03-22T01:51:49;97308.13;;;4.18;89.38
72336;BME280;65062;48.446;8.834;2023-03-22T01:54:51;97312.00;;;4.14;90.60
72336;BME280;65062;48.446;8.834;2023-03-22T01:57:53;97306.94;;;4.30;91.42
72336;BME280;65062;48.446;8.834;2023-03-22T02:00:54;97298.59;;;4.18;90.37
72336;BME280;65062;48.446;8.834;2023-03-22T02:03:59;97291.31;;;3.96;90.18
72336;BME280;65062;48.446;8.834;2023-03-22T02:07:05;97290.94;;;3.91;90.61
72336;BME280;65062;48.446;8.834;2023-03-22T02:10:20;97290.59;;;3.86;91.21
72336;BME280;65062;48.446;8.834;2023-03-22T02:13:32;97289.09;;;3.84;91.06
72336;BME280;65062;48.446;8.834;2023-03-22T02:30:34;97282.66;;;3.53;90.71
72336;BME280;65062;48.446;8.834;2023-03-22T02:43:35;97279.44;;;3.24;90.73
72336;BME280;65062;48.446;8.834;2023-03-22T02:46:44;97271.91;;;3.13;91.31
72336;BME280;65062;48.446;8.834;2023-03-22T02:49:53;97272.03;;;3.11;91.26
72336;BME280;65062;48.446;8.834;2023-03-22T02:56:10;97288.91;;;2.88;90.41
72336;BME280;65062;48.446;8.834;2023-03-22T02:59:12;97289.31;;;2.84;91.32
72336;BME280;65062;48.446;8.834;2023-03-22T03:02:15;97283.97;;;3.22;92.05
72336;BME280;65062;48.446;8.834;2023-03-22T03:05:19;97286.03;;;3.36;91.88
72336;BME280;65062;48.446;8.834;2023-03-22T03:08:21;97282.84;;;3.24;92.14
72336;BME280;65062;48.446;8.834;2023-03-22T03:11:23;97282.44;;;3.19;91.93
72336;BME280;65062;48.446;8.834;2023-03-22T03:14:26;97280.72;;;3.37;91.54
72336;BME280;65062;48.446;8.834;2023-03-22T03:21:18;97283.66;;;3.25;90.39
72336;BME280;65062;48.446;8.834;2023-03-22T03:27:39;97283.25;;;3.02;91.32
72336;BME280;65062;48.446;8.834;2023-03-22T03:30:57;97291.22;;;2.82;90.90
72336;BME280;65062;48.446;8.834;2023-03-22T03:34:08;97288.50;;;2.83;91.48
72336;BME280;65062;48.446;8.834;2023-03-22T03:37:34;97285.94;;;2.74;91.47
72336;BME280;65062;48.446;8.834;2023-03-22T03:40:36;97292.63;;;2.67;91.79
72336;BME280;65062;48.446;8.834;2023-03-22T03:43:40;97302.66;;;2.79;92.28
72336;BME280;65062;48.446;8.834;2023-03-22T03:46:43;97310.16;;;2.73;92.50
72336;BME280;65062;48.446;8.834;2023-03-22T03:49:44;97307.63;;;2.63;92.39
72336;BME280;65062;48.446;8.834;2023-03-22T03:52:45;97306.09;;;2.97;93.05
72336;BME280;65062;48.446;8.834;2023-03-22T03:55:45;97304.34;;;2.98;93.36
72336;BME280;65062;48.446;8.834;2023-03-22T03:58:46;97303.44;;;2.89;93.00
72336;BME280;65062;48.446;8.834;2023-03-22T04:01:46;97306.97;;;2.88;93.07
72336;BME280;65062;48.446;8.834;2023-03-22T04:04:51;97310.97;;;3.10;92.93
72336;BME280;65062;48.446;8.834;2023-03-22T04:07:51;97315.53;;;2.89;92.36
72336;BME280;65062;48.446;8.834;2023-03-22T04:10:52;97313.28;;;2.76;91.89
72336;BME280;65062;48.446;8.834;2023-03-22T04:13:52;97304.00;;;2.83;91.06
72336;BME280;65062;48.446;8.834;2023-03-22T04:16:53;97306.38;;;2.58;91.22
72336;BME280;65062;48.446;8.834;2023-03-22T04:19:55;97296.88;;;2.68;90.54
72336;BME280;65062;48.446;8.834;2023-03-22T04:22:58;97298.81;;;2.47;91.10
72336;BME280;65062;48.446;8.834;2023-03-22T04:25:59;97282.53;;;2.37;91.91
72336;BME280;65062;48.446;8.834;2023-03-22T04:29:00;97285.91;;;2.47;91.58
72336;BME280;65062;48.446;8.834;2023-03-22T04:32:02;97293.16;;;2.24;90.76
72336;BME280;65062;48.446;8.834;2023-03-22T04:35:03;97283.00;;;2.13;90.80
72336;BME280;65062;48.446;8.834;2023-03-22T04:38:04;97276.06;;;2.13;90.69
72336;BME280;65062;48.446;8.834;2023-03-22T04:41:05;97283.41;;;2.08;91.21
72336;BME280;65062;48.446;8.834;2023-03-22T04:44:06;97280.19;;;1.97;92.06
72336;BME280;65062;48.446;8.834;2023-03-22T04:47:06;97281.94;;;1.96;92.80
72336;BME280;65062;48.446;8.834;2023-03-22T04:50:07;97280.41;;;2.03;92.25
72336;BME280;65062;48.446;8.834;2023-03-22T04:53:08;97277.59;;;1.87;91.83
72336;BME280;65062;48.446;8.834;2023-03-22T04:56:10;97278.38;;;1.97;91.89
72336;BME280;65062;48.446;8.834;2023-03-22T04:59:12;97272.84;;;1.83;92.73
72336;BME280;65062;48.446;8.834;2023-03-22T05:02:12;97267.81;;;1.81;92.67
72336;BME280;65062;48.446;8.834;2023-03-22T05:05:13;97272.00;;;1.82;92.94
72336;BME280;65062;48.446;8.834;2023-03-22T05:08:13;97264.81;;;1.86;92.15
72336;BME280;65062;48.446;8.834;2023-03-22T05:11:15;97266.59;;;1.85;92.15
72336;BME280;65062;48.446;8.834;2023-03-22T05:14:16;97267.00;;;1.81;92.24
72336;BME280;65062;48.446;8.834;2023-03-22T05:17:16;97262.88;;;2.16;93.31
72336;BME280;65062;48.446;8.834;2023-03-22T05:20:17;97263.00;;;2.15;93.45
72336;BME280;65062;48.446;8.834;2023-03-22T05:23:17;97257.44;;;2.19;93.19
72336;BME280;65062;48.446;8.834;2023-03-22T05:26:18;97257.28;;;2.21;93.55
72336;BME280;65062;48.446;8.834;2023-03-22T05:29:19;97254.19;;;2.17;92.93
72336;BME280;65062;48.446;8.834;2023-03-22T05:32:20;97253.09;;;2.10;92.80
72336;BME280;65062;48.446;8.834;2023-03-22T05:35:25;97254.66;;;1.94;92.56
72336;BME280;65062;48.446;8.834;2023-03-22T05:38:26;97257.19;;;2.03;92.72
72336;BME280;65062;48.446;8.834;2023-03-22T05:41:27;97258.03;;;2.04;92.73
72336;BME280;65062;48.446;8.834;2023-03-22T05:44:30;97254.09;;;2.00;92.86
72336;BME280;65062;48.446;8.834;2023-03-22T05:47:31;97248.06;;;2.09;93.14
72336;BME280;65062;48.446;8.834;2023-03-22T05:50:32;97251.34;;;2.21;93.13
72336;BME280;65062;48.446;8.834;2023-03-22T05:53:32;97247.38;;;2.16;93.09
72336;BME280;65062;48.446;8.834;2023-03-22T05:56:33;97255.63;;;2.30;92.99
72336;BME280;65062;48.446;8.834;2023-03-22T05:59:34;97256.91;;;2.16;91.25
72336;BME280;65062;48.446;8.834;2023-03-22T06:02:34;97250.38;;;2.12;92.20
72336;BME280;65062;48.446;8.834;2023-03-22T06:05:35;97260.09;;;2.37;92.25
72336;BME280;65062;48.446;8.834;2023-03-22T06:08:37;97266.72;;;2.49;92.72
72336;BME280;65062;48.446;8.834;2023-03-22T06:11:37;97261.53;;;2.59;91.93
72336;BME280;65062;48.446;8.834;2023-03-22T06:14:38;97262.31;;;2.69;92.27
72336;BME280;65062;48.446;8.834;2023-03-22T06:17:38;97271.53;;;2.71;91.93
72336;BME280;65062;48.446;8.834;2023-03-22T06:20:38;97266.22;;;2.73;92.17
72336;BME280;65062;48.446;8.834;2023-03-22T06:23:39;97271.81;;;2.78;92.05
72336;BME280;65062;48.446;8.834;2023-03-22T06:26:40;97271.13;;;2.76;91.76
72336;BME280;65062;48.446;8.834;2023-03-22T06:29:40;97280.69;;;2.93;91.75
72336;BME280;65062;48.446;8.834;2023-03-22T06:32:41;97289.81;;;2.97;91.10
72336;BME280;65062;48.446;8.834;2023-03-22T06:35:41;97294.13;;;3.06;90.89
72336;BME280;65062;48.446;8.834;2023-03-22T06:38:42;97290.41;;;3.08;90.53
72336;BME280;65062;48.446;8.834;2023-03-22T06:41:42;97290.13;;;3.11;90.54
72336;BME280;65062;48.446;8.834;2023-03-22T06:44:43;97293.38;;;3.13;91.10
72336;BME280;65062;48.446;8.834;2023-03-22T06:47:43;97287.75;;;3.18;91.01
72336;BME280;65062;48.446;8.834;2023-03-22T06:50:44;97290.84;;;3.31;91.20
72336;BME280;65062;48.446;8.834;2023-03-22T06:53:44;97292.38;;;3.41;91.12
72336;BME280;65062;48.446;8.834;2023-03-22T06:56:45;97285.03;;;3.46;90.27
72336;BME280;65062;48.446;8.834;2023-03-22T06:59:46;97282.56;;;3.45;90.78
72336;BME280;65062;48.446;8.834;2023-03-22T07:02:46;97285.56;;;3.50;90.76
72336;BME280;65062;48.446;8.834;2023-03-22T07:05:47;97274.00;;;3.79;89.86
72336;BME280;65062;48.446;8.834;2023-03-22T07:08:47;97271.50;;;3.87;89.64
72336;BME280;65062;48.446;8.834;2023-03-22T07:11:47;97263.34;;;4.00;89.75
72336;BME280;65062;48.446;8.834;2023-03-22T07:14:48;97269.03;;;4.03;90.34
72336;BME280;65062;48.446;8.834;2023-03-22T07:17:49;97273.09;;;4.06;90.48
72336;BME280;65062;48.446;8.834;2023-03-22T07:20:51;97270.03;;;4.10;90.81
72336;BME280;65062;48.446;8.834;2023-03-22T07:23:51;97265.38;;;4.14;90.74
72336;BME280;65062;48.446;8.834;2023-03-22T07:26:52;97261.75;;;4.24;91.31
72336;BME280;65062;48.446;8.834;2023-03-22T07:29:52;97274.44;;;4.35;90.74
72336;BME280;65062;48.446;8.834;2023-03-22T07:32:53;97270.31;;;4.51;91.55
72336;BME280;65062;48.446;8.834;2023-03-22T07:35:53;97275.44;;;4.68;90.81
72336;BME280;65062;48.446;8.834;2023-03-22T07:38:54;97270.47;;;4.83;90.24
72336;BME280;65062;48.446;8.834;2023-03-22T07:41:55;97268.97;;;5.06;90.14
72336;BME280;65062;48.446;8.834;2023-03-22T07:44:56;97276.13;;;5.12;90.25
72336;BME280;65062;48.446;8.834;2023-03-22T07:47:56;97271.63;;;5.22;89.74
72336;BME280;65062;48.446;8.834;2023-03-22T07:50:56;97266.13;;;5.33;89.83
72336;BME280;65062;48.446;8.834;2023-03-22T07:53:57;97262.13;;;5.46;90.30
72336;BME280;65062;48.446;8.834;2023-03-22T07:56:57;97254.19;;;5.64;89.28
72336;BME280;65062;48.446;8.834;2023-03-22T07:59:58;97251.97;;;5.85;89.13
72336;BME280;65062;48.446;8.834;2023-03-22T08:02:58;97254.41;;;6.18;89.09
72336;BME280;65062;48.446;8.834;2023-03-22T08:06:01;97253.72;;;6.40;88.31
72336;BME280;65062;48.446;8.834;2023-03-22T08:09:06;97259.16;;;6.78;86.63
72336;BME280;65062;48.446;8.834;2023-03-22T08:12:07;97244.88;;;7.12;84.49
72336;BME280;65062;48.446;8.834;2023-03-22T08:15:08;97255.06;;;7.52;83.89
72336;BME280;65062;48.446;8.834;2023-03-22T08:18:09;97254.84;;;7.62;83.50
72336;BME280;65062;48.446;8.834;2023-03-22T08:21:09;97247.38;;;7.81;83.07
72336;BME280;65062;48.446;8.834;2023-03-22T08:24:10;97244.13;;;8.24;78.44
72336;BME280;65062;48.446;8.834;2023-03-22T08:27:11;97249.91;;;8.34;78.78
72336;BME280;65062;48.446;8.834;2023-03-22T08:30:13;97253.66;;;8.69;77.23
72336;BME280;65062;48.446;8.834;2023-03-22T08:33:13;97247.53;;;9.06;75.91
72336;BME280;65062;48.446;8.834;2023-03-22T08:36:18;97249.84;;;9.15;75.37
72336;BME280;65062;48.446;8.834;2023-03-22T08:39:18;97246.56;;;9.42;74.43
72336;BME280;65062;48.446;8.834;2023-03-22T08:42:20;97239.00;;;9.68;73.08
72336;BME280;65062;48.446;8.834;2023-03-22T08:45:20;97252.38;;;10.01;72.04
72336;BME280;65062;48.446;8.834;2023-03-22T08:48:21;97244.56;;;10.22;70.61
72336;BME280;65062;48.446;8.834;2023-03-22T08:51:22;97243.09;;;10.40;70.75
72336;BME280;65062;48.446;8.834;2023-03-22T08:54:22;97237.56;;;10.56;71.07
72336;BME280;65062;48.446;8.834;2023-03-22T08:57:23;97237.19;;;11.41;65.12
72336;BME280;65062;48.446;8.834;2023-03-22T09:00:23;97244.66;;;12.23;61.52
72336;BME280;65062;48.446;8.834;2023-03-22T09:03:24;97232.09;;;12.38;63.83
72336;BME280;65062;48.446;8.834;2023-03-22T09:06:25;97227.25;;;12.61;60.58
72336;BME280;65062;48.446;8.834;2023-03-22T09:09:25;97223.38;;;12.77;59.28
72336;BME280;65062;48.446;8.834;2023-03-22T09:12:26;97227.75;;;13.16;58.66
72336;BME280;65062;48.446;8.834;2023-03-22T09:15:26;97221.81;;;13.33;58.43
72336;BME280;65062;48.446;8.834;2023-03-22T09:18:27;97212.44;;;13.50;57.54
72336;BME280;65062;48.446;8.834;2023-03-22T09:21:28;97210.94;;;13.67;56.36
72336;BME280;65062;48.446;8.834;2023-03-22T09:24:31;97219.91;;;13.84;55.89
72336;BME280;65062;48.446;8.834;2023-03-22T09:27:32;97206.09;;;13.95;55.53
72336;BME280;65062;48.446;8.834;2023-03-22T09:30:33;97204.38;;;14.07;55.65
72336;BME280;65062;48.446;8.834;2023-03-22T09:33:36;97206.13;;;14.44;54.92
72336;BME280;65062;48.446;8.834;2023-03-22T09:36:37;97211.72;;;14.73;52.18
72336;BME280;65062;48.446;8.834;2023-03-22T09:39:38;97205.72;;;15.02;53.22
72336;BME280;65062;48.446;8.834;2023-03-22T09:42:41;97200.84;;;15.05;52.29
72336;BME280;65062;48.446;8.834;2023-03-22T09:45:47;97201.78;;;15.11;49.84
72336;BME280;65062;48.446;8.834;2023-03-22T09:48:49;97193.22;;;15.15;50.35
72336;BME280;65062;48.446;8.834;2023-03-22T09:51:51;97196.50;;;15.29;50.73
72336;BME280;65062;48.446;8.834;2023-03-22T09:54:52;97190.06;;;15.43;50.84
72336;BME280;65062;48.446;8.834;2023-03-22T10:04:43;97170.59;;;15.85;48.94
72336;BME280;65062;48.446;8.834;2023-03-22T10:17:31;97158.84;;;16.22;45.82
72336;BME280;65062;48.446;8.834;2023-03-22T10:23:44;97153.06;;;16.13;45.37
72336;BME280;65062;48.446;8.834;2023-03-22T10:26:47;97146.88;;;16.19;47.13
72336;BME280;65062;48.446;8.834;2023-03-22T10:29:52;97144.81;;;16.33;43.57
72336;BME280;65062;48.446;8.834;2023-03-22T10:32:56;97144.06;;;16.44;42.25
72336;BME280;65062;48.446;8.834;2023-03-22T10:36:00;97133.81;;;16.82;43.55
72336;BME280;65062;48.446;8.834;2023-03-22T10:39:31;97137.16;;;17.17;40.06
72336;BME280;65062;48.446;8.834;2023-03-22T10:42:35;97128.69;;;17.32;38.38
72336;BME280;65062;48.446;8.834;2023-03-22T10:45:37;97136.50;;;17.38;38.95
72336;BME280;65062;48.446;8.834;2023-03-22T10:48:39;97125.25;;;17.59;39.78
72336;BME280;65062;48.446;8.834;2023-03-22T10:51:48;97130.44;;;17.82;37.24
72336;BME280;65062;48.446;8.834;2023-03-22T10:54:49;97112.31;;;18.07;38.69
72336;BME280;65062;48.446;8.834;2023-03-22T11:01:14;97127.81;;;18.48;35.98
72336;BME280;65062;48.446;8.834;2023-03-22T11:04:16;97111.47;;;18.56;34.86
72336;BME280;65062;48.446;8.834;2023-03-22T11:07:28;97123.84;;;18.18;36.14
72336;BME280;65062;48.446;8.834;2023-03-22T11:10:32;97119.44;;;18.23;36.77
72336;BME280;65062;48.446;8.834;2023-03-22T11:13:32;97123.13;;;18.22;34.15
72336;BME280;65062;48.446;8.834;2023-03-22T11:19:54;97117.94;;;18.65;35.03
72336;BME280;65062;48.446;8.834;2023-03-22T11:23:00;97120.78;;;19.02;35.30
72336;BME280;65062;48.446;8.834;2023-03-22T11:26:07;97113.75;;;19.13;32.42
72336;BME280;65062;48.446;8.834;2023-03-22T11:29:16;97097.38;;;20.00;34.75
72336;BME280;65062;48.446;8.834;2023-03-22T11:32:34;97105.13;;;20.38;32.80
72336;BME280;65062;48.446;8.834;2023-03-22T11:35:37;97110.44;;;20.85;29.50
72336;BME280;65062;48.446;8.834;2023-03-22T11:38:40;97104.00;;;19.98;30.71
72336;BME280;65062;48.446;8.834;2023-03-22T11:41:44;97112.91;;;19.82;30.54
72336;BME280;65062;48.446;8.834;2023-03-22T11:44:44;97104.78;;;20.77;31.13
72336;BME280;65062;48.446;8.834;2023-03-22T11:47:45;97100.84;;;22.56;27.82
72336;BME280;65062;48.446;8.834;2023-03-22T11:50:46;97097.25;;;25.07;23.72
72336;BME280;65062;48.446;8.834;2023-03-22T11:53:47;97093.63;;;26.28;22.46
72336;BME280;65062;48.446;8.834;2023-03-22T11:56:48;97073.78;;;27.37;21.37
72336;BME280;65062;48.446;8.834;2023-03-22T12:03:00;97075.94;;;28.98;18.79
72336;BME280;65062;48.446;8.834;2023-03-22T12:06:03;97077.75;;;28.72;19.48
72336;BME280;65062;48.446;8.834;2023-03-22T12:09:31;97075.69;;;27.23;20.19
72336;BME280;65062;48.446;8.834;2023-03-22T12:12:35;97049.50;;;28.30;19.51
72336;BME280;65062;48.446;8.834;2023-03-22T12:15:40;97056.63;;;29.05;19.95
72336;BME280;65062;48.446;8.834;2023-03-22T12:19:04;97055.38;;;28.63;19.90
72336;BME280;65062;48.446;8.834;2023-03-22T12:22:09;97046.78;;;28.53;19.03
72336;BME280;65062;48.446;8.834;2023-03-22T12:25:31;97043.84;;;28.80;17.82
72336;BME280;65062;48.446;8.834;2023-03-22T12:28:40;97036.59;;;31.46;17.73
72336;BME280;65062;48.446;8.834;2023-03-22T12:32:10;97032.03;;;32.45;14.60
72336;BME280;65062;48.446;8.834;2023-03-22T12:35:17;97047.38;;;33.61;15.45
72336;BME280;65062;48.446;8.834;2023-03-22T12:38:24;97038.72;;;34.69;14.74
72336;BME280;65062;48.446;8.834;2023-03-22T12:41:34;97027.31;;;35.64;12.51
72336;BME280;65062;48.446;8.834;2023-03-22T12:44:38;97054.97;;;35.66;12.63
72336;BME280;65062;48.446;8.834;2023-03-22T12:47:46;97042.16;;;35.66;12.43
72336;BME280;65062;48.446;8.834;2023-03-22T12:50:52;97037.53;;;32.36;13.72
72336;BME280;65062;48.446;8.834;2023-03-22T12:53:57;97046.50;;;32.16;15.91
72336;BME280;65062;48.446;8.834;2023-03-22T12:56:58;97039.81;;;31.11;14.53
72336;BME280;65062;48.446;8.834;2023-03-22T13:00:05;97047.41;;;29.70;16.20
72336;BME280;65062;48.446;8.834;2023-03-22T13:09:50;97026.91;;;30.50;17.13
72336;BME280;65062;48.446;8.834;2023-03-22T13:16:16;97039.25;;;30.21;16.18
72336;BME280;65062;48.446;8.834;2023-03-22T13:19:35;97034.25;;;26.62;18.93
72336;BME280;65062;48.446;8.834;2023-03-22T13:25:38;97016.22;;;30.62;16.67
72336;BME280;65062;48.446;8.834;2023-03-22T13:28:59;97019.53;;;30.21;16.47
72336;BME280;65062;48.446;8.834;2023-03-22T13:32:03;97018.16;;;30.53;15.37
72336;BME280;65062;48.446;8.834;2023-03-22T13:36:02;97014.47;;;28.53;17.76
72336;BME280;65062;48.446;8.834;2023-03-22T13:38:41;97015.63;;;29.25;16.97
72336;BME280;65062;48.446;8.834;2023-03-22T13:41:46;97004.44;;;30.75;16.40
72336;BME280;65062;48.446;8.834;2023-03-22T13:44:54;97015.09;;;32.36;13.82
72336;BME280;65062;48.446;8.834;2023-03-22T13:48:08;97007.78;;;31.21;14.21
72336;BME280;65062;48.446;8.834;2023-03-22T13:54:39;96995.06;;;30.64;15.16
72336;BME280;65062;48.446;8.834;2023-03-22T13:57:55;96992.63;;;31.08;15.52
72336;BME280;65062;48.446;8.834;2023-03-22T14:00:58;96984.16;;;32.85;14.37
72336;BME280;65062;48.446;8.834;2023-03-22T14:04:00;96988.25;;;33.82;13.93
72336;BME280;65062;48.446;8.834;2023-03-22T14:07:20;96982.81;;;31.98;13.68
72336;BME280;65062;48.446;8.834;2023-03-22T14:10:25;96984.38;;;27.45;19.12
72336;BME280;65062;48.446;8.834;2023-03-22T14:13:34;96977.31;;;27.80;18.18
72336;BME280;65062;48.446;8.834;2023-03-22T14:16:42;96971.38;;;29.34;17.67
72336;BME280;65062;48.446;8.834;2023-03-22T14:19:45;96969.75;;;32.00;15.33
72336;BME280;65062;48.446;8.834;2023-03-22T14:23:08;96976.00;;;32.25;14.42
72336;BME280;65062;48.446;8.834;2023-03-22T14:29:20;96969.47;;;30.32;15.99
72336;BME280;65062;48.446;8.834;2023-03-22T14:32:23;96970.34;;;33.14;14.54
72336;BME280;65062;48.446;8.834;2023-03-22T14:35:31;96979.44;;;34.00;13.95
72336;BME280;65062;48.446;8.834;2023-03-22T14:38:39;96972.31;;;31.96;15.05
72336;BME280;65062;48.446;8.834;2023-03-22T14:45:04;96962.81;;;33.74;14.12
72336;BME280;65062;48.446;8.834;2023-03-22T14:48:19;96965.44;;;30.47;17.42
72336;BME280;65062;48.446;8.834;2023-03-22T14:51:28;96962.59;;;27.55;20.77
72336;BME280;65062;48.446;8.834;2023-03-22T14:54:30;96966.50;;;26.78;20.32
72336;BME280;65062;48.446;8.834;2023-03-22T14:57:45;96968.41;;;25.09;22.44
72336;BME280;65062;48.446;8.834;2023-03-22T15:00:47;96973.72;;;24.48;23.73
72336;BME280;65062;48.446;8.834;2023-03-22T15:03:48;96960.84;;;23.74;24.96
72336;BME280;65062;48.446;8.834;2023-03-22T15:06:58;96959.63;;;25.22;23.35
72336;BME280;65062;48.446;8.834;2023-03-22T15:10:13;96947.09;;;25.54;22.04
72336;BME280;65062;48.446;8.834;2023-03-22T15:13:15;96943.00;;;24.69;23.47
72336;BME280;65062;48.446;8.834;2023-03-22T15:16:20;96933.75;;;25.95;22.30
72336;BME280;65062;48.446;8.834;2023-03-22T15:19:22;96936.25;;;26.59;22.48
72336;BME280;65062;48.446;8.834;2023-03-22T15:22:23;96931.72;;;26.73;21.71
72336;BME280;65062;48.446;8.834;2023-03-22T15:25:33;96933.47;;;26.91;20.83
72336;BME280;65062;48.446;8.834;2023-03-22T15:28:41;96928.81;;;25.88;21.82
72336;BME280;65062;48.446;8.834;2023-03-22T15:31:44;96912.13;;;24.53;23.17
72336;BME280;65062;48.446;8.834;2023-03-22T15:34:47;96924.72;;;24.52;24.23
72336;BME280;65062;48.446;8.834;2023-03-22T15:37:51;96914.78;;;27.08;21.98
72336;BME280;65062;48.446;8.834;2023-03-22T15:40:52;96909.34;;;27.00;20.92
72336;BME280;65062;48.446;8.834;2023-03-22T15:44:00;96915.00;;;27.56;19.91
72336;BME280;65062;48.446;8.834;2023-03-22T15:50:06;96939.81;;;25.41;20.91
72336;BME280;65062;48.446;8.834;2023-03-22T15:53:26;96935.97;;;23.74;24.32
72336;BME280;65062;48.446;8.834;2023-03-22T15:56:35;96927.72;;;21.61;27.19
72336;BME280;65062;48.446;8.834;2023-03-22T16:02:58;96924.81;;;21.02;27.63
72336;BME280;65062;48.446;8.834;2023-03-22T16:05:59;96942.84;;;20.90;28.73
72336;BME280;65062;48.446;8.834;2023-03-22T16:08:59;96929.53;;;20.80;28.36
72336;BME280;65062;48.446;8.834;2023-03-22T16:12:00;96931.31;;;20.54;27.83
72336;BME280;65062;48.446;8.834;2023-03-22T16:15:01;96927.34;;;20.47;27.89
72336;BME280;65062;48.446;8.834;2023-03-22T16:18:01;96937.41;;;20.35;29.93
72336;BME280;65062;48.446;8.834;2023-03-22T16:21:02;96927.38;;;20.57;28.45
72336;BME280;65062;48.446;8.834;2023-03-22T16:24:04;96928.91;;;20.43;30.02
72336;BME280;65062;48.446;8.834;2023-03-22T16:27:10;96940.00;;;20.25;30.44
72336;BME280;65062;48.446;8.834;2023-03-22T16:30:12;96937.50;;;20.08;31.13
72336;BME280;65062;48.446;8.834;2023-03-22T16:33:14;96939.53;;;19.86;31.28
72336;BME280;65062;48.446;8.834;2023-03-22T16:36:18;96940.00;;;19.42;35.58
72336;BME280;65062;48.446;8.834;2023-03-22T16:39:19;96940.84;;;19.16;35.79
72336;BME280;65062;48.446;8.834;2023-03-22T16:42:22;96939.69;;;18.32;32.92
72336;BME280;65062;48.446;8.834;2023-03-22T16:45:31;96944.91;;;18.05;35.15
72336;BME280;65062;48.446;8.834;2023-03-22T16:48:32;96938.91;;;17.72;34.77
72336;BME280;65062;48.446;8.834;2023-03-22T16:51:34;96937.69;;;17.63;34.67
72336;BME280;65062;48.446;8.834;2023-03-22T16:54:34;96940.13;;;17.48;36.24
72336;BME280;65062;48.446;8.834;2023-03-22T16:57:35;96938.16;;;17.27;38.40
72336;BME280;65062;48.446;8.834;2023-03-22T17:00:35;96941.75;;;16.88;40.55
72336;BME280;65062;48.446;8.834;2023-03-22T17:03:36;96948.78;;;16.54;42.60
72336;BME280;65062;48.446;8.834;2023-03-22T17:06:37;96942.34;;;16.22;44.93
72336;BME280;65062;48.446;8.834;2023-03-22T17:09:37;96948.13;;;15.84;45.31
72336;BME280;65062;48.446;8.834;2023-03-22T17:12:38;96954.06;;;15.34;47.36
72336;BME280;65062;48.446;8.834;2023-03-22T17:15:42;96948.66;;;15.06;46.29
72336;BME280;65062;48.446;8.834;2023-03-22T17:18:43;96952.16;;;14.88;46.60
72336;BME280;65062;48.446;8.834;2023-03-22T17:21:43;96951.13;;;14.59;48.43
72336;BME280;65062;48.446;8.834;2023-03-22T17:24:43;96961.97;;;14.51;46.43
72336;BME280;65062;48.446;8.834;2023-03-22T17:27:45;96959.59;;;14.14;48.60
72336;BME280;65062;48.446;8.834;2023-03-22T17:30:45;96965.72;;;13.90;50.01
72336;BME280;65062;48.446;8.834;2023-03-22T17:33:46;96960.91;;;13.44;51.17
72336;BME280;65062;48.446;8.834;2023-03-22T17:36:49;96956.72;;;13.12;52.48
72336;BME280;65062;48.446;8.834;2023-03-22T17:39:49;96964.88;;;12.66;53.04
72336;BME280;65062;48.446;8.834;2023-03-22T17:42:50;96965.72;;;12.60;54.83
72336;BME280;65062;48.446;8.834;2023-03-22T17:45:51;96973.31;;;12.37;55.04
72336;BME280;65062;48.446;8.834;2023-03-22T17:48:51;96965.16;;;12.08;55.88
72336;BME280;65062;48.446;8.834;2023-03-22T17:51:52;96967.84;;;12.01;56.36